Huaquan222 — BSOX — position and weather

sailwx.info

Track history (hours):
 
Tides and Currents Weather Stations Pressure Air Temp Water Temp Dewpoint Dewpoint Depression Visibility Wind Speed Wind Dir Waves Ship Positions

Huaquan222

Last reported at 2015-Mar-04 21:17 UTC. Time now 2015-Mar-05 08:09 UTC.
Position N 22°17' E 113°50'.

Length 67 m; draft 2.1 m.

Type: Dredging. MMSI: 413467440.

Date/timePositionNaut miles runAvg speedWind from/ knotsBaromVisibWave heightAir tempDewpointWater temp
2015-Mar-04 21:17N 22°17' E 113°50'3 4.3
2015-Mar-04 20:33N 22°14' E 113°48'4 3.8
2015-Mar-04 19:33N 22°13' E 113°44'3 3.5
2015-Mar-04 18:33N 22°10' E 113°42'4 3.6
2015-Mar-04 17:33N 22°07' E 113°40'4 1.8
2015-Mar-04 15:26N 22°03' E 113°39'4 4.9
2015-Mar-04 14:31N 22°07' E 113°41'4 4.4
2015-Mar-04 13:33N 22°11' E 113°43'4 3.9
2015-Mar-04 12:33N 22°14' E 113°45'4 3.8
2015-Mar-04 11:33N 22°16' E 113°49'1 0.3
2015-Mar-04 06:30N 22°17' E 113°49'0 0.0
2015-Mar-04 04:24N 22°17' E 113°49'0 0.0
2015-Mar-04 03:24N 22°17' E 113°49'0 0.0
2015-Mar-04 00:33N 22°18' E 113°49'0 0.0
2015-Mar-03 21:25N 22°17' E 113°49'0 0.0
2015-Mar-03 20:29N 22°17' E 113°49'0 0.0
2015-Mar-03 19:19N 22°17' E 113°49'0 0.0
2015-Mar-03 18:33N 22°17' E 113°49'0 0.0
2015-Mar-03 17:33N 22°17' E 113°49'0 0.1
2015-Mar-03 15:29N 22°17' E 113°49'0 0.1
2015-Mar-03 14:32N 22°18' E 113°49'0 0.0
2015-Mar-03 13:33N 22°18' E 113°49'0 0.0
2015-Mar-03 10:33N 22°18' E 113°49'0 0.0
2015-Mar-03 08:19N 22°18' E 113°49'0 0.0
2015-Mar-03 07:33N 22°18' E 113°49'0 0.0
2015-Mar-03 06:23N 22°18' E 113°49'0 0.0
2015-Mar-03 05:33N 22°18' E 113°49'0 0.0
2015-Mar-03 04:32N 22°18' E 113°49'0 0.2
2015-Mar-03 03:30N 22°18' E 113°49'0 0.0
2015-Mar-03 02:20N 22°18' E 113°49'0 0.0
2015-Mar-03 00:22N 22°18' E 113°49'0 0.0
2015-Mar-02 09:22N 22°18' E 113°49'0 0.0
2015-Mar-02 06:25N 22°18' E 113°49'0 0.0
2015-Mar-02 04:22N 22°18' E 113°49'0 0.1
2015-Mar-02 03:11N 22°18' E 113°49'0 0.0
2015-Mar-02 01:17N 22°18' E 113°49'0 0.1
2015-Mar-02 00:32N 22°18' E 113°49'0 0.0
2015-Mar-01 22:15N 22°18' E 113°49'0 0.0
2015-Mar-01 13:33N 22°18' E 113°49'0 0.0
2015-Mar-01 12:33N 22°18' E 113°49'0 0.0
2015-Mar-01 11:33N 22°18' E 113°49'0 0.0
2015-Mar-01 07:33N 22°18' E 113°49'0 0.0
2015-Mar-01 06:33N 22°18' E 113°49'0 0.0
2015-Mar-01 05:23N 22°18' E 113°49'0 0.1
2015-Mar-01 04:30N 22°18' E 113°49'0 0.0
2015-Mar-01 03:22N 22°18' E 113°49'0 0.0
2015-Mar-01 02:04N 22°18' E 113°49'0 0.0
2015-Mar-01 01:33N 22°18' E 113°49'0 0.0
2015-Mar-01 00:31N 22°18' E 113°49'0 0.0
2015-Feb-28 23:33N 22°18' E 113°49'0 0.0
2015-Feb-28 22:15N 22°18' E 113°49'0 0.0
2015-Feb-28 21:33N 22°18' E 113°49'0 0.0
2015-Feb-28 20:33N 22°18' E 113°49'0 0.1
2015-Feb-28 19:33N 22°18' E 113°49'0 0.0
2015-Feb-28 18:30N 22°18' E 113°49'0 0.0
2015-Feb-28 17:26N 22°18' E 113°49'0 0.0
2015-Feb-28 16:33N 22°18' E 113°49'0 0.0
2015-Feb-28 15:28N 22°18' E 113°49'0 0.0
2015-Feb-28 14:25N 22°18' E 113°49'0 0.0
2015-Feb-28 13:30N 22°18' E 113°49'0 0.0
2015-Feb-28 12:33N 22°18' E 113°49'0 0.0
2015-Feb-28 11:30N 22°18' E 113°49'0 0.1
2015-Feb-28 10:13N 22°18' E 113°49'0 0.0
2015-Feb-28 07:32N 22°18' E 113°49'0 0.1
2015-Feb-28 06:33N 22°18' E 113°49'0 0.0
2015-Feb-28 04:20N 22°18' E 113°49'0 0.0
2015-Feb-28 03:33N 22°18' E 113°49'0 0.0
2015-Feb-28 02:20N 22°18' E 113°49'0 0.0
2015-Feb-28 01:23N 22°18' E 113°49'0 0.0
2015-Feb-27 23:29N 22°18' E 113°49'0 0.0
2015-Feb-27 21:18N 22°18' E 113°49'0 0.0
2015-Feb-27 19:27N 22°18' E 113°49'0 0.0
2015-Feb-27 16:33N 22°18' E 113°49'0 0.0
2015-Feb-27 15:18N 22°18' E 113°49'0 0.0
2015-Feb-26 21:07N 22°18' E 113°49'0 0.0
2015-Feb-26 20:30N 22°18' E 113°49'0 0.0
2015-Feb-26 18:31N 22°18' E 113°49'0 0.1
2015-Feb-26 17:33N 22°18' E 113°49'0 0.0
2015-Feb-26 16:26N 22°18' E 113°49'0 0.0
2015-Feb-26 15:30N 22°18' E 113°49'0 0.0
2015-Feb-26 14:33N 22°18' E 113°49'0 0.0
2015-Feb-26 13:33N 22°18' E 113°49'0 0.0
2015-Feb-26 12:33N 22°18' E 113°49'0 0.0
2015-Feb-26 11:33N 22°18' E 113°49'0 0.0
2015-Feb-26 10:32N 22°18' E 113°49'0 0.0
2015-Feb-26 09:07N 22°18' E 113°49'0 0.0
2015-Feb-26 08:32N 22°18' E 113°49'0 0.0
2015-Feb-26 07:33N 22°18' E 113°49'0 0.0
2015-Feb-26 06:20N 22°18' E 113°49'0 0.1
2015-Feb-26 05:28N 22°18' E 113°49'0 0.0
2015-Feb-26 04:33N 22°18' E 113°49'0 0.1
2015-Feb-26 03:29N 22°18' E 113°49'0 0.0
2015-Feb-26 01:20N 22°18' E 113°49'0 0.0
2015-Feb-26 00:33N 22°18' E 113°49'0 0.0
2015-Feb-25 23:33N 22°18' E 113°49'0 0.0
2015-Feb-25 22:33N 22°18' E 113°49'0 0.0
2015-Feb-25 21:33N 22°18' E 113°49'0 0.0
2015-Feb-25 20:33N 22°18' E 113°49'0 0.1
2015-Feb-25 19:25N 22°18' E 113°49'0 0.1
2015-Feb-25 18:30N 22°18' E 113°49'0 0.0
2015-Feb-25 17:23N 22°18' E 113°49'0 0.0
2015-Feb-25 13:33N 22°18' E 113°49'0 0.0
2015-Feb-25 11:33N 22°18' E 113°49'1 0.5
2015-Feb-25 09:06N 22°18' E 113°48'  
Track history (hours):
 
Tides and Currents Weather Stations Pressure Air Temp Water Temp Dewpoint Dewpoint Depression Visibility Wind Speed Wind Dir Waves Ship Positions

Huaquan222

Last reported at 2015-Mar-04 21:17 UTC. Time now 2015-Mar-05 08:09 UTC.
Position N 22°17' E 113°50'.

Length 67 m; draft 2.1 m.

Type: Dredging. MMSI: 413467440.

Date/timePositionNaut miles runAvg speedWind from/ knotsBaromVisibWave heightAir tempDewpointWater temp
2015-Mar-04 21:17N 22°17' E 113°50'3 4.3
2015-Mar-04 20:33N 22°14' E 113°48'4 3.8
2015-Mar-04 19:33N 22°13' E 113°44'3 3.5
2015-Mar-04 18:33N 22°10' E 113°42'4 3.6
2015-Mar-04 17:33N 22°07' E 113°40'4 1.8
2015-Mar-04 15:26N 22°03' E 113°39'4 4.9
2015-Mar-04 14:31N 22°07' E 113°41'4 4.4
2015-Mar-04 13:33N 22°11' E 113°43'4 3.9
2015-Mar-04 12:33N 22°14' E 113°45'4 3.8
2015-Mar-04 11:33N 22°16' E 113°49'1 0.3
2015-Mar-04 06:30N 22°17' E 113°49'0 0.0
2015-Mar-04 04:24N 22°17' E 113°49'0 0.0
2015-Mar-04 03:24N 22°17' E 113°49'0 0.0
2015-Mar-04 00:33N 22°18' E 113°49'0 0.0
2015-Mar-03 21:25N 22°17' E 113°49'0 0.0
2015-Mar-03 20:29N 22°17' E 113°49'0 0.0
2015-Mar-03 19:19N 22°17' E 113°49'0 0.0
2015-Mar-03 18:33N 22°17' E 113°49'0 0.0
2015-Mar-03 17:33N 22°17' E 113°49'0 0.1
2015-Mar-03 15:29N 22°17' E 113°49'0 0.1
2015-Mar-03 14:32N 22°18' E 113°49'0 0.0
2015-Mar-03 13:33N 22°18' E 113°49'0 0.0
2015-Mar-03 10:33N 22°18' E 113°49'0 0.0
2015-Mar-03 08:19N 22°18' E 113°49'0 0.0
2015-Mar-03 07:33N 22°18' E 113°49'0 0.0
2015-Mar-03 06:23N 22°18' E 113°49'0 0.0
2015-Mar-03 05:33N 22°18' E 113°49'0 0.0
2015-Mar-03 04:32N 22°18' E 113°49'0 0.2
2015-Mar-03 03:30N 22°18' E 113°49'0 0.0
2015-Mar-03 02:20N 22°18' E 113°49'0 0.0
2015-Mar-03 00:22N 22°18' E 113°49'0 0.0
2015-Mar-02 09:22N 22°18' E 113°49'0 0.0
2015-Mar-02 06:25N 22°18' E 113°49'0 0.0
2015-Mar-02 04:22N 22°18' E 113°49'0 0.1
2015-Mar-02 03:11N 22°18' E 113°49'0 0.0
2015-Mar-02 01:17N 22°18' E 113°49'0 0.1
2015-Mar-02 00:32N 22°18' E 113°49'0 0.0
2015-Mar-01 22:15N 22°18' E 113°49'0 0.0
2015-Mar-01 13:33N 22°18' E 113°49'0 0.0
2015-Mar-01 12:33N 22°18' E 113°49'0 0.0
2015-Mar-01 11:33N 22°18' E 113°49'0 0.0
2015-Mar-01 07:33N 22°18' E 113°49'0 0.0
2015-Mar-01 06:33N 22°18' E 113°49'0 0.0
2015-Mar-01 05:23N 22°18' E 113°49'0 0.1
2015-Mar-01 04:30N 22°18' E 113°49'0 0.0
2015-Mar-01 03:22N 22°18' E 113°49'0 0.0
2015-Mar-01 02:04N 22°18' E 113°49'0 0.0
2015-Mar-01 01:33N 22°18' E 113°49'0 0.0
2015-Mar-01 00:31N 22°18' E 113°49'0 0.0
2015-Feb-28 23:33N 22°18' E 113°49'0 0.0
2015-Feb-28 22:15N 22°18' E 113°49'0 0.0
2015-Feb-28 21:33N 22°18' E 113°49'0 0.0
2015-Feb-28 20:33N 22°18' E 113°49'0 0.1
2015-Feb-28 19:33N 22°18' E 113°49'0 0.0
2015-Feb-28 18:30N 22°18' E 113°49'0 0.0
2015-Feb-28 17:26N 22°18' E 113°49'0 0.0
2015-Feb-28 16:33N 22°18' E 113°49'0 0.0
2015-Feb-28 15:28N 22°18' E 113°49'0 0.0
2015-Feb-28 14:25N 22°18' E 113°49'0 0.0
2015-Feb-28 13:30N 22°18' E 113°49'0 0.0
2015-Feb-28 12:33N 22°18' E 113°49'0 0.0
2015-Feb-28 11:30N 22°18' E 113°49'0 0.1
2015-Feb-28 10:13N 22°18' E 113°49'0 0.0
2015-Feb-28 07:32N 22°18' E 113°49'0 0.1
2015-Feb-28 06:33N 22°18' E 113°49'0 0.0
2015-Feb-28 04:20N 22°18' E 113°49'0 0.0
2015-Feb-28 03:33N 22°18' E 113°49'0 0.0
2015-Feb-28 02:20N 22°18' E 113°49'0 0.0
2015-Feb-28 01:23N 22°18' E 113°49'0 0.0
2015-Feb-27 23:29N 22°18' E 113°49'0 0.0
2015-Feb-27 21:18N 22°18' E 113°49'0 0.0
2015-Feb-27 19:27N 22°18' E 113°49'0 0.0
2015-Feb-27 16:33N 22°18' E 113°49'0 0.0
2015-Feb-27 15:18N 22°18' E 113°49'0 0.0
2015-Feb-26 21:07N 22°18' E 113°49'0 0.0
2015-Feb-26 20:30N 22°18' E 113°49'0 0.0
2015-Feb-26 18:31N 22°18' E 113°49'0 0.1
2015-Feb-26 17:33N 22°18' E 113°49'0 0.0
2015-Feb-26 16:26N 22°18' E 113°49'0 0.0
2015-Feb-26 15:30N 22°18' E 113°49'0 0.0
2015-Feb-26 14:33N 22°18' E 113°49'0 0.0
2015-Feb-26 13:33N 22°18' E 113°49'0 0.0
2015-Feb-26 12:33N 22°18' E 113°49'0 0.0
2015-Feb-26 11:33N 22°18' E 113°49'0 0.0
2015-Feb-26 10:32N 22°18' E 113°49'0 0.0
2015-Feb-26 09:07N 22°18' E 113°49'0 0.0
2015-Feb-26 08:32N 22°18' E 113°49'0 0.0
2015-Feb-26 07:33N 22°18' E 113°49'0 0.0
2015-Feb-26 06:20N 22°18' E 113°49'0 0.1
2015-Feb-26 05:28N 22°18' E 113°49'0 0.0
2015-Feb-26 04:33N 22°18' E 113°49'0 0.1
2015-Feb-26 03:29N 22°18' E 113°49'0 0.0
2015-Feb-26 01:20N 22°18' E 113°49'0 0.0
2015-Feb-26 00:33N 22°18' E 113°49'0 0.0
2015-Feb-25 23:33N 22°18' E 113°49'0 0.0
2015-Feb-25 22:33N 22°18' E 113°49'0 0.0
2015-Feb-25 21:33N 22°18' E 113°49'0 0.0
2015-Feb-25 20:33N 22°18' E 113°49'0 0.1
2015-Feb-25 19:25N 22°18' E 113°49'0 0.1
2015-Feb-25 18:30N 22°18' E 113°49'0 0.0
2015-Feb-25 17:23N 22°18' E 113°49'0 0.0
2015-Feb-25 13:33N 22°18' E 113°49'0 0.0
2015-Feb-25 11:33N 22°18' E 113°49'1 0.5
2015-Feb-25 09:06N 22°18' E 113°48'  

Dump ship's entire track history